sensor_id;sensor_type;location;lat;lon;timestamp;P1;durP1;ratioP1;P2;durP2;ratioP2
6131;SDS011;3097;42.692;23.278;2024-02-15T00:00:27;12.53;;;8.77;;
6131;SDS011;3097;42.692;23.278;2024-02-15T00:02:53;12.93;;;8.73;;
6131;SDS011;3097;42.692;23.278;2024-02-15T00:05:19;13.43;;;8.47;;
6131;SDS011;3097;42.692;23.278;2024-02-15T00:07:44;12.47;;;8.87;;
6131;SDS011;3097;42.692;23.278;2024-02-15T00:10:14;11.17;;;7.50;;
6131;SDS011;3097;42.692;23.278;2024-02-15T00:12:40;10.60;;;8.17;;
6131;SDS011;3097;42.692;23.278;2024-02-15T00:15:05;11.87;;;8.70;;
6131;SDS011;3097;42.692;23.278;2024-02-15T00:17:31;12.77;;;8.23;;
6131;SDS011;3097;42.692;23.278;2024-02-15T00:19:58;11.77;;;8.77;;
6131;SDS011;3097;42.692;23.278;2024-02-15T00:22:25;10.53;;;8.20;;
6131;SDS011;3097;42.692;23.278;2024-02-15T00:24:50;9.87;;;7.70;;
6131;SDS011;3097;42.692;23.278;2024-02-15T00:27:16;10.57;;;8.63;;
6131;SDS011;3097;42.692;23.278;2024-02-15T00:29:42;12.00;;;8.57;;
6131;SDS011;3097;42.692;23.278;2024-02-15T00:32:08;19.60;;;11.80;;
6131;SDS011;3097;42.692;23.278;2024-02-15T00:34:36;19.07;;;10.63;;
6131;SDS011;3097;42.692;23.278;2024-02-15T00:37:03;11.27;;;9.00;;
6131;SDS011;3097;42.692;23.278;2024-02-15T00:39:30;10.63;;;8.77;;
6131;SDS011;3097;42.692;23.278;2024-02-15T00:41:56;9.47;;;8.20;;
6131;SDS011;3097;42.692;23.278;2024-02-15T00:44:22;11.53;;;8.60;;
6131;SDS011;3097;42.692;23.278;2024-02-15T00:46:48;12.33;;;8.40;;
6131;SDS011;3097;42.692;23.278;2024-02-15T00:49:13;11.87;;;8.47;;
6131;SDS011;3097;42.692;23.278;2024-02-15T00:51:39;10.17;;;7.47;;
6131;SDS011;3097;42.692;23.278;2024-02-15T00:54:04;11.80;;;8.53;;
6131;SDS011;3097;42.692;23.278;2024-02-15T00:56:31;13.17;;;8.60;;
6131;SDS011;3097;42.692;23.278;2024-02-15T00:59:00;10.97;;;8.37;;
6131;SDS011;3097;42.692;23.278;2024-02-15T01:01:26;11.17;;;7.60;;
6131;SDS011;3097;42.692;23.278;2024-02-15T01:03:51;10.27;;;8.13;;
6131;SDS011;3097;42.692;23.278;2024-02-15T01:06:17;11.93;;;8.10;;
6131;SDS011;3097;42.692;23.278;2024-02-15T01:08:43;11.47;;;7.80;;
6131;SDS011;3097;42.692;23.278;2024-02-15T01:11:08;10.73;;;7.97;;
6131;SDS011;3097;42.692;23.278;2024-02-15T01:13:34;13.80;;;8.13;;
6131;SDS011;3097;42.692;23.278;2024-02-15T01:16:00;9.47;;;7.50;;
6131;SDS011;3097;42.692;23.278;2024-02-15T01:18:28;10.33;;;7.60;;
6131;SDS011;3097;42.692;23.278;2024-02-15T01:20:55;12.33;;;8.50;;
6131;SDS011;3097;42.692;23.278;2024-02-15T01:23:21;10.40;;;8.00;;
6131;SDS011;3097;42.692;23.278;2024-02-15T01:25:47;10.17;;;7.50;;
6131;SDS011;3097;42.692;23.278;2024-02-15T01:28:13;13.13;;;8.20;;
6131;SDS011;3097;42.692;23.278;2024-02-15T01:30:39;11.80;;;7.33;;
6131;SDS011;3097;42.692;23.278;2024-02-15T01:33:05;16.87;;;8.30;;
6131;SDS011;3097;42.692;23.278;2024-02-15T01:35:31;11.20;;;8.43;;
6131;SDS011;3097;42.692;23.278;2024-02-15T01:37:56;12.27;;;7.90;;
6131;SDS011;3097;42.692;23.278;2024-02-15T01:40:22;10.77;;;8.47;;
6131;SDS011;3097;42.692;23.278;2024-02-15T01:42:47;9.90;;;8.17;;
6131;SDS011;3097;42.692;23.278;2024-02-15T01:45:15;10.60;;;7.53;;
6131;SDS011;3097;42.692;23.278;2024-02-15T01:47:41;11.40;;;8.70;;
6131;SDS011;3097;42.692;23.278;2024-02-15T01:50:12;12.43;;;8.93;;
6131;SDS011;3097;42.692;23.278;2024-02-15T01:52:39;12.67;;;8.30;;
6131;SDS011;3097;42.692;23.278;2024-02-15T01:55:06;10.97;;;8.67;;
6131;SDS011;3097;42.692;23.278;2024-02-15T01:57:32;12.57;;;8.80;;
6131;SDS011;3097;42.692;23.278;2024-02-15T02:00:00;12.57;;;8.40;;
6131;SDS011;3097;42.692;23.278;2024-02-15T02:02:26;11.57;;;8.00;;
6131;SDS011;3097;42.692;23.278;2024-02-15T02:04:56;12.23;;;8.23;;
6131;SDS011;3097;42.692;23.278;2024-02-15T02:07:22;14.10;;;8.60;;
6131;SDS011;3097;42.692;23.278;2024-02-15T02:09:47;12.60;;;8.17;;
6131;SDS011;3097;42.692;23.278;2024-02-15T02:12:14;10.83;;;8.40;;
6131;SDS011;3097;42.692;23.278;2024-02-15T02:14:40;10.57;;;8.10;;
6131;SDS011;3097;42.692;23.278;2024-02-15T02:17:15;12.37;;;8.13;;
6131;SDS011;3097;42.692;23.278;2024-02-15T02:19:41;12.47;;;7.77;;
6131;SDS011;3097;42.692;23.278;2024-02-15T02:22:08;11.00;;;7.67;;
6131;SDS011;3097;42.692;23.278;2024-02-15T02:24:36;11.93;;;7.67;;
6131;SDS011;3097;42.692;23.278;2024-02-15T02:27:25;12.23;;;7.97;;
6131;SDS011;3097;42.692;23.278;2024-02-15T02:29:53;11.57;;;7.67;;
6131;SDS011;3097;42.692;23.278;2024-02-15T02:32:18;13.00;;;8.93;;
6131;SDS011;3097;42.692;23.278;2024-02-15T02:34:44;14.20;;;7.93;;
6131;SDS011;3097;42.692;23.278;2024-02-15T02:37:09;13.87;;;9.00;;
6131;SDS011;3097;42.692;23.278;2024-02-15T02:39:36;11.97;;;8.47;;
6131;SDS011;3097;42.692;23.278;2024-02-15T02:42:02;13.27;;;8.87;;
6131;SDS011;3097;42.692;23.278;2024-02-15T02:44:27;12.03;;;8.10;;
6131;SDS011;3097;42.692;23.278;2024-02-15T02:46:53;14.03;;;8.53;;
6131;SDS011;3097;42.692;23.278;2024-02-15T02:49:18;12.17;;;8.33;;
6131;SDS011;3097;42.692;23.278;2024-02-15T02:51:44;14.03;;;8.60;;
6131;SDS011;3097;42.692;23.278;2024-02-15T02:54:10;12.30;;;8.43;;
6131;SDS011;3097;42.692;23.278;2024-02-15T02:56:36;12.07;;;8.90;;
6131;SDS011;3097;42.692;23.278;2024-02-15T02:59:01;12.30;;;8.50;;
6131;SDS011;3097;42.692;23.278;2024-02-15T03:01:28;12.37;;;7.60;;
6131;SDS011;3097;42.692;23.278;2024-02-15T03:03:54;12.40;;;8.70;;
6131;SDS011;3097;42.692;23.278;2024-02-15T03:06:22;13.27;;;8.93;;
6131;SDS011;3097;42.692;23.278;2024-02-15T03:08:50;15.80;;;9.83;;
6131;SDS011;3097;42.692;23.278;2024-02-15T03:11:19;16.47;;;9.60;;
6131;SDS011;3097;42.692;23.278;2024-02-15T03:13:45;12.10;;;8.87;;
6131;SDS011;3097;42.692;23.278;2024-02-15T03:16:11;14.13;;;9.03;;
6131;SDS011;3097;42.692;23.278;2024-02-15T03:18:36;16.07;;;9.77;;
6131;SDS011;3097;42.692;23.278;2024-02-15T03:21:02;14.70;;;9.73;;
6131;SDS011;3097;42.692;23.278;2024-02-15T03:23:29;15.90;;;10.30;;
6131;SDS011;3097;42.692;23.278;2024-02-15T03:25:56;14.40;;;9.10;;
6131;SDS011;3097;42.692;23.278;2024-02-15T03:28:21;12.40;;;8.87;;
6131;SDS011;3097;42.692;23.278;2024-02-15T03:30:49;13.27;;;9.60;;
6131;SDS011;3097;42.692;23.278;2024-02-15T03:33:15;14.17;;;9.40;;
6131;SDS011;3097;42.692;23.278;2024-02-15T03:35:41;16.67;;;10.00;;
6131;SDS011;3097;42.692;23.278;2024-02-15T03:38:07;15.97;;;10.10;;
6131;SDS011;3097;42.692;23.278;2024-02-15T03:40:32;15.27;;;10.23;;
6131;SDS011;3097;42.692;23.278;2024-02-15T03:42:58;15.60;;;9.13;;
6131;SDS011;3097;42.692;23.278;2024-02-15T03:45:24;14.50;;;9.60;;
6131;SDS011;3097;42.692;23.278;2024-02-15T03:47:53;15.10;;;9.70;;
6131;SDS011;3097;42.692;23.278;2024-02-15T03:50:19;14.50;;;9.23;;
6131;SDS011;3097;42.692;23.278;2024-02-15T03:52:46;16.47;;;9.00;;
6131;SDS011;3097;42.692;23.278;2024-02-15T03:55:13;19.57;;;9.50;;
6131;SDS011;3097;42.692;23.278;2024-02-15T03:57:39;15.17;;;9.07;;
6131;SDS011;3097;42.692;23.278;2024-02-15T04:00:11;13.20;;;8.87;;
6131;SDS011;3097;42.692;23.278;2024-02-15T04:02:45;17.93;;;10.13;;
6131;SDS011;3097;42.692;23.278;2024-02-15T04:05:13;16.33;;;10.20;;
6131;SDS011;3097;42.692;23.278;2024-02-15T04:07:39;17.30;;;9.70;;
6131;SDS011;3097;42.692;23.278;2024-02-15T04:10:05;18.30;;;10.87;;
6131;SDS011;3097;42.692;23.278;2024-02-15T04:12:31;17.93;;;11.33;;
6131;SDS011;3097;42.692;23.278;2024-02-15T04:14:58;19.40;;;10.23;;
6131;SDS011;3097;42.692;23.278;2024-02-15T04:17:36;20.40;;;11.50;;
6131;SDS011;3097;42.692;23.278;2024-02-15T04:20:03;18.73;;;11.67;;
6131;SDS011;3097;42.692;23.278;2024-02-15T04:22:29;21.90;;;12.30;;
6131;SDS011;3097;42.692;23.278;2024-02-15T04:24:57;18.37;;;11.53;;
6131;SDS011;3097;42.692;23.278;2024-02-15T04:27:22;18.40;;;11.00;;
6131;SDS011;3097;42.692;23.278;2024-02-15T04:29:48;26.73;;;10.37;;
6131;SDS011;3097;42.692;23.278;2024-02-15T04:32:15;16.30;;;9.60;;
6131;SDS011;3097;42.692;23.278;2024-02-15T04:34:41;14.33;;;9.60;;
6131;SDS011;3097;42.692;23.278;2024-02-15T04:37:06;14.80;;;9.73;;
6131;SDS011;3097;42.692;23.278;2024-02-15T04:39:33;15.20;;;9.70;;
6131;SDS011;3097;42.692;23.278;2024-02-15T04:42:02;16.17;;;9.90;;
6131;SDS011;3097;42.692;23.278;2024-02-15T04:44:28;16.23;;;9.50;;
6131;SDS011;3097;42.692;23.278;2024-02-15T04:46:53;15.97;;;9.20;;
6131;SDS011;3097;42.692;23.278;2024-02-15T04:49:20;16.30;;;9.60;;
6131;SDS011;3097;42.692;23.278;2024-02-15T04:51:46;14.67;;;8.60;;
6131;SDS011;3097;42.692;23.278;2024-02-15T04:54:15;13.47;;;8.80;;
6131;SDS011;3097;42.692;23.278;2024-02-15T04:56:41;15.67;;;9.53;;
6131;SDS011;3097;42.692;23.278;2024-02-15T04:59:07;15.03;;;9.63;;
6131;SDS011;3097;42.692;23.278;2024-02-15T05:01:34;17.43;;;9.60;;
6131;SDS011;3097;42.692;23.278;2024-02-15T05:04:00;19.30;;;10.83;;
6131;SDS011;3097;42.692;23.278;2024-02-15T05:06:31;16.77;;;9.83;;
6131;SDS011;3097;42.692;23.278;2024-02-15T05:08:57;16.70;;;9.20;;
6131;SDS011;3097;42.692;23.278;2024-02-15T05:11:25;15.90;;;10.43;;
6131;SDS011;3097;42.692;23.278;2024-02-15T05:13:51;18.97;;;10.57;;
6131;SDS011;3097;42.692;23.278;2024-02-15T05:16:17;16.70;;;10.10;;
6131;SDS011;3097;42.692;23.278;2024-02-15T05:18:45;17.37;;;10.00;;
6131;SDS011;3097;42.692;23.278;2024-02-15T05:21:12;16.23;;;10.07;;
6131;SDS011;3097;42.692;23.278;2024-02-15T05:23:38;16.43;;;10.47;;
6131;SDS011;3097;42.692;23.278;2024-02-15T05:26:07;17.57;;;10.43;;
6131;SDS011;3097;42.692;23.278;2024-02-15T05:28:33;17.53;;;9.97;;
6131;SDS011;3097;42.692;23.278;2024-02-15T05:31:09;17.63;;;10.47;;
6131;SDS011;3097;42.692;23.278;2024-02-15T05:33:43;19.10;;;10.57;;
6131;SDS011;3097;42.692;23.278;2024-02-15T05:36:12;18.93;;;10.27;;
6131;SDS011;3097;42.692;23.278;2024-02-15T05:38:41;17.10;;;9.97;;
6131;SDS011;3097;42.692;23.278;2024-02-15T05:41:11;20.03;;;10.10;;
6131;SDS011;3097;42.692;23.278;2024-02-15T05:43:37;20.30;;;11.30;;
6131;SDS011;3097;42.692;23.278;2024-02-15T05:46:03;22.10;;;12.47;;
6131;SDS011;3097;42.692;23.278;2024-02-15T05:48:31;18.80;;;11.00;;
6131;SDS011;3097;42.692;23.278;2024-02-15T05:51:00;19.50;;;11.70;;
6131;SDS011;3097;42.692;23.278;2024-02-15T05:53:26;22.07;;;12.30;;
6131;SDS011;3097;42.692;23.278;2024-02-15T05:55:52;23.50;;;11.80;;
6131;SDS011;3097;42.692;23.278;2024-02-15T05:58:18;20.23;;;12.50;;
6131;SDS011;3097;42.692;23.278;2024-02-15T06:00:43;20.50;;;11.87;;
6131;SDS011;3097;42.692;23.278;2024-02-15T06:03:15;23.63;;;12.60;;
6131;SDS011;3097;42.692;23.278;2024-02-15T06:05:43;24.20;;;12.27;;
6131;SDS011;3097;42.692;23.278;2024-02-15T06:08:10;21.20;;;10.97;;
6131;SDS011;3097;42.692;23.278;2024-02-15T06:10:39;15.23;;;10.03;;
6131;SDS011;3097;42.692;23.278;2024-02-15T06:13:08;20.97;;;10.87;;
6131;SDS011;3097;42.692;23.278;2024-02-15T06:15:34;22.60;;;11.93;;
6131;SDS011;3097;42.692;23.278;2024-02-15T06:18:01;17.33;;;10.20;;
6131;SDS011;3097;42.692;23.278;2024-02-15T06:20:29;16.97;;;11.03;;
6131;SDS011;3097;42.692;23.278;2024-02-15T06:22:55;20.67;;;9.83;;
6131;SDS011;3097;42.692;23.278;2024-02-15T06:25:21;21.37;;;10.77;;
6131;SDS011;3097;42.692;23.278;2024-02-15T06:27:48;16.47;;;10.23;;
6131;SDS011;3097;42.692;23.278;2024-02-15T06:30:16;19.30;;;10.23;;
6131;SDS011;3097;42.692;23.278;2024-02-15T06:33:00;19.80;;;11.60;;
6131;SDS011;3097;42.692;23.278;2024-02-15T06:35:44;18.20;;;10.93;;
6131;SDS011;3097;42.692;23.278;2024-02-15T06:38:28;19.67;;;11.53;;
6131;SDS011;3097;42.692;23.278;2024-02-15T06:41:12;15.67;;;10.00;;
6131;SDS011;3097;42.692;23.278;2024-02-15T06:43:38;16.80;;;10.27;;
6131;SDS011;3097;42.692;23.278;2024-02-15T06:46:07;19.67;;;11.33;;
6131;SDS011;3097;42.692;23.278;2024-02-15T06:48:34;17.57;;;10.83;;
6131;SDS011;3097;42.692;23.278;2024-02-15T06:50:59;18.70;;;10.47;;
6131;SDS011;3097;42.692;23.278;2024-02-15T06:53:25;23.67;;;11.47;;
6131;SDS011;3097;42.692;23.278;2024-02-15T06:55:50;19.50;;;11.27;;
6131;SDS011;3097;42.692;23.278;2024-02-15T06:58:16;18.17;;;10.87;;
6131;SDS011;3097;42.692;23.278;2024-02-15T07:00:45;16.50;;;9.80;;
6131;SDS011;3097;42.692;23.278;2024-02-15T07:03:10;15.80;;;10.20;;
6131;SDS011;3097;42.692;23.278;2024-02-15T07:05:36;15.20;;;9.90;;
6131;SDS011;3097;42.692;23.278;2024-02-15T07:08:07;13.67;;;9.73;;
6131;SDS011;3097;42.692;23.278;2024-02-15T07:10:37;17.77;;;10.17;;
6131;SDS011;3097;42.692;23.278;2024-02-15T07:13:03;19.20;;;9.83;;
6131;SDS011;3097;42.692;23.278;2024-02-15T07:15:31;15.77;;;10.17;;
6131;SDS011;3097;42.692;23.278;2024-02-15T07:17:58;15.70;;;9.77;;
6131;SDS011;3097;42.692;23.278;2024-02-15T07:20:24;14.43;;;9.20;;
6131;SDS011;3097;42.692;23.278;2024-02-15T07:22:51;19.67;;;10.23;;
6131;SDS011;3097;42.692;23.278;2024-02-15T07:25:16;16.03;;;10.47;;
6131;SDS011;3097;42.692;23.278;2024-02-15T07:27:43;16.17;;;9.73;;
6131;SDS011;3097;42.692;23.278;2024-02-15T07:30:08;16.87;;;9.60;;
6131;SDS011;3097;42.692;23.278;2024-02-15T07:32:34;14.63;;;8.77;;
6131;SDS011;3097;42.692;23.278;2024-02-15T07:35:00;18.80;;;9.00;;
6131;SDS011;3097;42.692;23.278;2024-02-15T07:37:26;14.97;;;8.50;;
6131;SDS011;3097;42.692;23.278;2024-02-15T07:39:54;16.90;;;7.83;;
6131;SDS011;3097;42.692;23.278;2024-02-15T07:42:20;18.27;;;8.40;;
6131;SDS011;3097;42.692;23.278;2024-02-15T07:44:45;11.57;;;8.50;;
6131;SDS011;3097;42.692;23.278;2024-02-15T07:47:11;14.93;;;8.83;;
6131;SDS011;3097;42.692;23.278;2024-02-15T07:49:36;14.13;;;8.53;;
6131;SDS011;3097;42.692;23.278;2024-02-15T07:52:02;11.80;;;9.27;;
6131;SDS011;3097;42.692;23.278;2024-02-15T07:54:29;13.30;;;8.50;;
6131;SDS011;3097;42.692;23.278;2024-02-15T07:56:57;11.63;;;8.07;;
6131;SDS011;3097;42.692;23.278;2024-02-15T07:59:23;10.33;;;8.50;;
6131;SDS011;3097;42.692;23.278;2024-02-15T08:01:48;9.43;;;7.73;;
6131;SDS011;3097;42.692;23.278;2024-02-15T08:04:15;9.60;;;8.50;;
6131;SDS011;3097;42.692;23.278;2024-02-15T08:06:42;9.03;;;8.07;;
6131;SDS011;3097;42.692;23.278;2024-02-15T08:09:08;10.37;;;9.20;;
6131;SDS011;3097;42.692;23.278;2024-02-15T08:11:39;10.50;;;8.50;;
6131;SDS011;3097;42.692;23.278;2024-02-15T08:14:05;10.03;;;8.87;;
6131;SDS011;3097;42.692;23.278;2024-02-15T08:16:33;10.27;;;8.70;;
6131;SDS011;3097;42.692;23.278;2024-02-15T08:18:59;12.30;;;8.33;;
6131;SDS011;3097;42.692;23.278;2024-02-15T08:21:29;12.50;;;9.37;;
6131;SDS011;3097;42.692;23.278;2024-02-15T08:24:01;9.27;;;8.00;;
6131;SDS011;3097;42.692;23.278;2024-02-15T08:26:37;11.17;;;8.47;;
6131;SDS011;3097;42.692;23.278;2024-02-15T08:29:04;14.80;;;8.23;;
6131;SDS011;3097;42.692;23.278;2024-02-15T08:31:31;11.07;;;8.30;;
6131;SDS011;3097;42.692;23.278;2024-02-15T08:33:57;11.00;;;8.10;;
6131;SDS011;3097;42.692;23.278;2024-02-15T08:36:23;12.93;;;9.50;;
6131;SDS011;3097;42.692;23.278;2024-02-15T08:38:51;14.80;;;9.73;;
6131;SDS011;3097;42.692;23.278;2024-02-15T08:41:17;18.10;;;9.70;;
6131;SDS011;3097;42.692;23.278;2024-02-15T08:43:46;15.40;;;8.83;;
6131;SDS011;3097;42.692;23.278;2024-02-15T08:46:15;11.47;;;8.07;;
6131;SDS011;3097;42.692;23.278;2024-02-15T08:48:40;9.30;;;8.30;;
6131;SDS011;3097;42.692;23.278;2024-02-15T08:51:06;13.23;;;8.23;;
6131;SDS011;3097;42.692;23.278;2024-02-15T08:53:34;10.30;;;7.67;;
6131;SDS011;3097;42.692;23.278;2024-02-15T08:56:02;9.80;;;8.50;;
6131;SDS011;3097;42.692;23.278;2024-02-15T08:58:31;9.90;;;7.93;;
6131;SDS011;3097;42.692;23.278;2024-02-15T09:00:57;11.53;;;7.90;;
6131;SDS011;3097;42.692;23.278;2024-02-15T09:03:23;12.40;;;8.33;;
6131;SDS011;3097;42.692;23.278;2024-02-15T09:05:49;17.43;;;12.00;;
6131;SDS011;3097;42.692;23.278;2024-02-15T09:08:14;11.43;;;8.47;;
6131;SDS011;3097;42.692;23.278;2024-02-15T09:10:47;10.93;;;7.97;;
6131;SDS011;3097;42.692;23.278;2024-02-15T09:13:14;13.60;;;8.33;;
6131;SDS011;3097;42.692;23.278;2024-02-15T09:15:40;10.77;;;7.90;;
6131;SDS011;3097;42.692;23.278;2024-02-15T09:18:07;10.83;;;8.20;;
6131;SDS011;3097;42.692;23.278;2024-02-15T09:20:35;11.47;;;7.23;;
6131;SDS011;3097;42.692;23.278;2024-02-15T09:23:02;10.43;;;7.80;;
6131;SDS011;3097;42.692;23.278;2024-02-15T09:25:34;8.93;;;6.90;;
6131;SDS011;3097;42.692;23.278;2024-02-15T09:28:03;9.43;;;7.03;;
6131;SDS011;3097;42.692;23.278;2024-02-15T09:30:28;10.50;;;7.63;;
6131;SDS011;3097;42.692;23.278;2024-02-15T09:32:56;9.50;;;6.53;;
6131;SDS011;3097;42.692;23.278;2024-02-15T09:35:22;10.63;;;7.20;;
6131;SDS011;3097;42.692;23.278;2024-02-15T09:37:48;7.87;;;6.83;;
6131;SDS011;3097;42.692;23.278;2024-02-15T09:40:14;11.50;;;6.67;;
6131;SDS011;3097;42.692;23.278;2024-02-15T09:42:42;8.07;;;6.77;;
6131;SDS011;3097;42.692;23.278;2024-02-15T09:45:10;9.10;;;6.23;;
6131;SDS011;3097;42.692;23.278;2024-02-15T09:47:38;7.97;;;6.40;;
6131;SDS011;3097;42.692;23.278;2024-02-15T09:50:06;9.23;;;7.27;;
6131;SDS011;3097;42.692;23.278;2024-02-15T09:52:33;12.37;;;8.93;;
6131;SDS011;3097;42.692;23.278;2024-02-15T09:55:03;10.00;;;6.87;;
6131;SDS011;3097;42.692;23.278;2024-02-15T09:57:29;8.40;;;6.60;;
6131;SDS011;3097;42.692;23.278;2024-02-15T10:00:00;8.70;;;6.77;;
6131;SDS011;3097;42.692;23.278;2024-02-15T10:02:26;11.50;;;6.93;;
6131;SDS011;3097;42.692;23.278;2024-02-15T10:04:52;12.70;;;6.93;;
6131;SDS011;3097;42.692;23.278;2024-02-15T10:07:22;14.27;;;7.20;;
6131;SDS011;3097;42.692;23.278;2024-02-15T10:09:52;15.13;;;7.97;;
6131;SDS011;3097;42.692;23.278;2024-02-15T10:12:18;8.07;;;6.27;;
6131;SDS011;3097;42.692;23.278;2024-02-15T10:14:49;13.27;;;7.30;;
6131;SDS011;3097;42.692;23.278;2024-02-15T10:17:18;12.57;;;7.97;;
6131;SDS011;3097;42.692;23.278;2024-02-15T10:19:44;12.40;;;8.00;;
6131;SDS011;3097;42.692;23.278;2024-02-15T10:22:27;10.47;;;7.60;;
6131;SDS011;3097;42.692;23.278;2024-02-15T10:24:53;10.90;;;7.40;;
6131;SDS011;3097;42.692;23.278;2024-02-15T10:27:35;8.73;;;6.63;;
6131;SDS011;3097;42.692;23.278;2024-02-15T10:30:14;8.80;;;7.03;;
6131;SDS011;3097;42.692;23.278;2024-02-15T10:32:43;11.60;;;6.93;;
6131;SDS011;3097;42.692;23.278;2024-02-15T10:35:10;9.07;;;6.60;;
6131;SDS011;3097;42.692;23.278;2024-02-15T10:37:40;9.70;;;7.27;;
6131;SDS011;3097;42.692;23.278;2024-02-15T10:40:07;10.20;;;7.10;;
6131;SDS011;3097;42.692;23.278;2024-02-15T10:42:33;11.17;;;6.30;;
6131;SDS011;3097;42.692;23.278;2024-02-15T10:45:03;13.03;;;7.27;;
6131;SDS011;3097;42.692;23.278;2024-02-15T10:47:30;11.33;;;6.80;;
6131;SDS011;3097;42.692;23.278;2024-02-15T10:49:56;8.83;;;6.60;;
6131;SDS011;3097;42.692;23.278;2024-02-15T10:52:23;12.23;;;7.70;;
6131;SDS011;3097;42.692;23.278;2024-02-15T10:55:01;8.77;;;7.03;;
6131;SDS011;3097;42.692;23.278;2024-02-15T10:57:31;9.23;;;6.73;;
6131;SDS011;3097;42.692;23.278;2024-02-15T10:59:58;8.70;;;6.30;;
6131;SDS011;3097;42.692;23.278;2024-02-15T11:02:38;7.83;;;5.90;;
6131;SDS011;3097;42.692;23.278;2024-02-15T11:05:11;8.23;;;5.90;;
6131;SDS011;3097;42.692;23.278;2024-02-15T11:07:39;10.10;;;6.57;;
6131;SDS011;3097;42.692;23.278;2024-02-15T11:10:08;7.10;;;5.77;;
6131;SDS011;3097;42.692;23.278;2024-02-15T11:12:36;9.47;;;6.03;;
6131;SDS011;3097;42.692;23.278;2024-02-15T11:15:03;7.13;;;5.90;;
6131;SDS011;3097;42.692;23.278;2024-02-15T11:20:08;11.97;;;6.17;;
6131;SDS011;3097;42.692;23.278;2024-02-15T11:22:37;7.30;;;5.77;;
6131;SDS011;3097;42.692;23.278;2024-02-15T11:25:03;9.37;;;5.83;;
6131;SDS011;3097;42.692;23.278;2024-02-15T11:27:34;6.57;;;5.90;;
6131;SDS011;3097;42.692;23.278;2024-02-15T11:30:07;6.37;;;5.70;;
6131;SDS011;3097;42.692;23.278;2024-02-15T11:32:44;6.10;;;5.50;;
6131;SDS011;3097;42.692;23.278;2024-02-15T11:35:20;6.77;;;5.53;;
6131;SDS011;3097;42.692;23.278;2024-02-15T11:43:06;9.73;;;5.97;;
6131;SDS011;3097;42.692;23.278;2024-02-15T11:45:33;6.30;;;5.70;;
6131;SDS011;3097;42.692;23.278;2024-02-15T11:48:07;6.33;;;5.73;;
6131;SDS011;3097;42.692;23.278;2024-02-15T11:50:37;6.60;;;5.90;;
6131;SDS011;3097;42.692;23.278;2024-02-15T11:53:05;8.77;;;5.70;;
6131;SDS011;3097;42.692;23.278;2024-02-15T11:55:34;10.40;;;6.13;;
6131;SDS011;3097;42.692;23.278;2024-02-15T11:58:03;8.10;;;6.13;;
6131;SDS011;3097;42.692;23.278;2024-02-15T12:00:37;11.63;;;7.83;;
6131;SDS011;3097;42.692;23.278;2024-02-15T12:03:22;8.07;;;7.03;;
6131;SDS011;3097;42.692;23.278;2024-02-15T12:06:07;7.87;;;6.77;;
6131;SDS011;3097;42.692;23.278;2024-02-15T12:08:52;7.27;;;6.13;;
6131;SDS011;3097;42.692;23.278;2024-02-15T12:11:37;7.33;;;5.30;;
6131;SDS011;3097;42.692;23.278;2024-02-15T12:17:43;8.90;;;6.10;;
6131;SDS011;3097;42.692;23.278;2024-02-15T12:20:38;9.60;;;5.90;;
6131;SDS011;3097;42.692;23.278;2024-02-15T12:23:04;7.00;;;5.97;;
6131;SDS011;3097;42.692;23.278;2024-02-15T12:25:32;5.90;;;5.33;;
6131;SDS011;3097;42.692;23.278;2024-02-15T12:27:59;7.90;;;6.30;;
6131;SDS011;3097;42.692;23.278;2024-02-15T12:30:32;7.40;;;6.47;;
6131;SDS011;3097;42.692;23.278;2024-02-15T12:33:13;6.10;;;5.50;;
6131;SDS011;3097;42.692;23.278;2024-02-15T12:35:45;7.03;;;5.60;;
6131;SDS011;3097;42.692;23.278;2024-02-15T12:38:12;7.17;;;5.90;;
6131;SDS011;3097;42.692;23.278;2024-02-15T12:40:41;6.73;;;5.83;;
6131;SDS011;3097;42.692;23.278;2024-02-15T12:43:07;11.43;;;6.77;;
6131;SDS011;3097;42.692;23.278;2024-02-15T12:45:37;7.50;;;6.37;;
6131;SDS011;3097;42.692;23.278;2024-02-15T12:48:05;10.70;;;6.90;;
6131;SDS011;3097;42.692;23.278;2024-02-15T12:50:31;8.27;;;6.63;;
6131;SDS011;3097;42.692;23.278;2024-02-15T12:52:57;7.17;;;6.43;;
6131;SDS011;3097;42.692;23.278;2024-02-15T12:55:34;13.57;;;8.37;;
6131;SDS011;3097;42.692;23.278;2024-02-15T12:58:01;10.47;;;8.47;;
6131;SDS011;3097;42.692;23.278;2024-02-15T13:00:33;16.43;;;7.87;;
6131;SDS011;3097;42.692;23.278;2024-02-15T13:03:02;9.07;;;6.63;;
6131;SDS011;3097;42.692;23.278;2024-02-15T13:05:29;9.03;;;7.03;;
6131;SDS011;3097;42.692;23.278;2024-02-15T13:07:56;6.83;;;6.13;;
6131;SDS011;3097;42.692;23.278;2024-02-15T13:10:31;8.80;;;6.67;;
6131;SDS011;3097;42.692;23.278;2024-02-15T13:12:57;7.33;;;6.57;;
6131;SDS011;3097;42.692;23.278;2024-02-15T13:15:23;7.23;;;6.50;;
6131;SDS011;3097;42.692;23.278;2024-02-15T13:17:57;11.93;;;6.70;;
6131;SDS011;3097;42.692;23.278;2024-02-15T13:20:23;13.37;;;10.60;;
6131;SDS011;3097;42.692;23.278;2024-02-15T13:23:00;7.97;;;7.03;;
6131;SDS011;3097;42.692;23.278;2024-02-15T13:25:27;7.93;;;5.70;;
6131;SDS011;3097;42.692;23.278;2024-02-15T13:27:54;7.00;;;5.37;;
6131;SDS011;3097;42.692;23.278;2024-02-15T13:30:20;7.70;;;7.00;;
6131;SDS011;3097;42.692;23.278;2024-02-15T13:32:49;5.90;;;5.40;;
6131;SDS011;3097;42.692;23.278;2024-02-15T13:35:17;9.10;;;6.27;;
6131;SDS011;3097;42.692;23.278;2024-02-15T13:37:51;6.47;;;5.53;;
6131;SDS011;3097;42.692;23.278;2024-02-15T13:40:17;8.30;;;6.20;;
6131;SDS011;3097;42.692;23.278;2024-02-15T13:42:45;6.03;;;5.53;;
6131;SDS011;3097;42.692;23.278;2024-02-15T13:45:21;6.60;;;5.90;;
6131;SDS011;3097;42.692;23.278;2024-02-15T13:47:49;7.37;;;6.33;;
6131;SDS011;3097;42.692;23.278;2024-02-15T13:50:20;5.77;;;5.27;;
6131;SDS011;3097;42.692;23.278;2024-02-15T13:52:46;6.47;;;5.87;;
6131;SDS011;3097;42.692;23.278;2024-02-15T13:55:13;6.27;;;5.67;;
6131;SDS011;3097;42.692;23.278;2024-02-15T13:57:40;7.30;;;6.03;;
6131;SDS011;3097;42.692;23.278;2024-02-15T14:00:07;6.70;;;6.10;;
6131;SDS011;3097;42.692;23.278;2024-02-15T14:02:39;8.60;;;5.40;;
6131;SDS011;3097;42.692;23.278;2024-02-15T14:05:10;7.03;;;5.57;;
6131;SDS011;3097;42.692;23.278;2024-02-15T14:07:39;5.70;;;5.20;;
6131;SDS011;3097;42.692;23.278;2024-02-15T14:10:05;6.63;;;5.23;;
6131;SDS011;3097;42.692;23.278;2024-02-15T14:12:32;11.23;;;5.87;;
6131;SDS011;3097;42.692;23.278;2024-02-15T14:14:59;15.73;;;8.10;;
6131;SDS011;3097;42.692;23.278;2024-02-15T14:17:24;11.13;;;7.30;;
6131;SDS011;3097;42.692;23.278;2024-02-15T14:19:50;7.17;;;6.27;;
6131;SDS011;3097;42.692;23.278;2024-02-15T14:22:16;9.13;;;6.17;;
6131;SDS011;3097;42.692;23.278;2024-02-15T14:24:41;6.13;;;5.60;;
6131;SDS011;3097;42.692;23.278;2024-02-15T14:27:09;10.80;;;6.93;;
6131;SDS011;3097;42.692;23.278;2024-02-15T14:29:35;16.17;;;10.13;;
6131;SDS011;3097;42.692;23.278;2024-02-15T14:32:03;21.40;;;9.83;;
6131;SDS011;3097;42.692;23.278;2024-02-15T14:34:55;10.67;;;7.77;;
6131;SDS011;3097;42.692;23.278;2024-02-15T14:37:21;22.80;;;8.77;;
6131;SDS011;3097;42.692;23.278;2024-02-15T14:39:47;7.43;;;6.70;;
6131;SDS011;3097;42.692;23.278;2024-02-15T14:42:13;9.63;;;7.03;;
6131;SDS011;3097;42.692;23.278;2024-02-15T14:44:39;15.83;;;9.00;;
6131;SDS011;3097;42.692;23.278;2024-02-15T14:47:05;11.93;;;8.27;;
6131;SDS011;3097;42.692;23.278;2024-02-15T14:49:30;12.87;;;9.43;;
6131;SDS011;3097;42.692;23.278;2024-02-15T14:51:56;15.73;;;9.60;;
6131;SDS011;3097;42.692;23.278;2024-02-15T14:54:21;19.80;;;9.20;;
6131;SDS011;3097;42.692;23.278;2024-02-15T14:56:47;17.47;;;9.33;;
6131;SDS011;3097;42.692;23.278;2024-02-15T14:59:13;12.00;;;9.17;;
6131;SDS011;3097;42.692;23.278;2024-02-15T15:01:40;11.93;;;8.10;;
6131;SDS011;3097;42.692;23.278;2024-02-15T15:04:06;18.07;;;10.13;;